Time;durP1;ratioP1;P1;durP2;ratioP2;P2;SDS_P1;SDS_P2;PMS_P1;PMS_P2;Temp;Humidity;BMP_temperature;BMP_pressure;BME280_temperature;BME280_humidity;BME280_pressure;Samples;Min_cycle;Max_cycle;Signal;HPM_P1;HPM_P2
2022/05/25 00:02:22;;;;;;;0.10;0.10;;;;;;;;;;6220683;22;20103;-93
2022/05/25 00:04:50;;;;;;;0.10;0.10;;;;;;;;;;6195772;23;20019;-92
2022/05/25 00:07:16;;;;;;;0.10;0.10;;;;;;;;;;6195907;23;20016;-93
2022/05/25 00:09:43;;;;;;;0.10;0.10;;;;;;;;;;6220705;23;20023;-94
2022/05/25 00:12:15;;;;;;;0.10;0.10;;;;;;;;;;6195662;22;20023;-94
2022/05/25 00:14:41;;;;;;;0.10;0.10;;;;;;;;;;6195620;23;20384;-92
2022/05/25 00:17:07;;;;;;;0.10;0.10;;;;;;;;;;6195401;23;20048;-94
2022/05/25 00:22:17;;;;;;;0.10;0.10;;;;;;;;;;6224460;22;20016;-93
2022/05/25 00:24:43;;;;;;;0.10;0.10;;;;;;;;;;6195533;23;20012;-94
2022/05/25 00:27:09;;;;;;;0.10;0.10;;;;;;;;;;6195066;23;20106;-92
2022/05/25 00:29:36;;;;;;;0.10;0.10;;;;;;;;;;6195070;23;20020;-91
2022/05/25 00:32:03;;;;;;;0.10;0.10;;;;;;;;;;6194893;23;20070;-91
2022/05/25 00:34:29;;;;;;;0.30;0.30;;;;;;;;;;6194477;23;20449;-90
2022/05/25 00:36:55;;;;;;;0.10;0.10;;;;;;;;;;6194476;23;20016;-91
2022/05/25 00:39:23;;;;;;;0.10;0.10;;;;;;;;;;6194562;23;20008;-91
2022/05/25 00:41:50;;;;;;;0.10;0.10;;;;;;;;;;6194752;23;20433;-91
2022/05/25 00:44:16;;;;;;;0.10;0.10;;;;;;;;;;6194415;23;20012;-91
2022/05/25 00:46:42;;;;;;;0.10;0.10;;;;;;;;;;6244393;23;20051;-91
2022/05/25 00:49:13;;;;;;;0.10;0.10;;;;;;;;;;6194654;23;20449;-91
2022/05/25 00:51:47;;;;;;;0.10;0.10;;;;;;;;;;6195110;23;20369;-94
2022/05/25 00:54:35;;;;;;;0.10;0.10;;;;;;;;;;6195102;23;20009;-93
2022/05/25 00:57:02;;;;;;;0.10;0.10;;;;;;;;;;6195329;23;20050;-92
2022/05/25 00:59:30;;;;;;;0.10;0.10;;;;;;;;;;6219977;23;20487;-91
2022/05/25 01:01:56;;;;;;;0.10;0.10;;;;;;;;;;6219678;23;20435;-92
2022/05/25 01:04:22;;;;;;;0.10;0.10;;;;;;;;;;6219302;23;20014;-93
2022/05/25 01:06:48;;;;;;;0.10;0.10;;;;;;;;;;6219729;23;20012;-91
2022/05/25 01:09:33;;;;;;;0.20;0.20;;;;;;;;;;6219498;23;20070;-91
2022/05/25 01:12:08;;;;;;;0.10;0.10;;;;;;;;;;6219320;23;20012;-91
2022/05/25 01:14:38;;;;;;;0.10;0.10;;;;;;;;;;6219406;23;20096;-93
2022/05/25 01:17:06;;;;;;;0.10;0.10;;;;;;;;;;6219482;23;20243;-92
2022/05/25 01:19:35;;;;;;;0.10;0.10;;;;;;;;;;6219162;23;20047;-92
2022/05/25 01:22:22;;;;;;;0.10;0.10;;;;;;;;;;6219336;23;20012;-93
2022/05/25 01:25:03;;;;;;;0.10;0.10;;;;;;;;;;6218813;23;20008;-92
2022/05/25 01:27:44;;;;;;;0.10;0.10;;;;;;;;;;6194893;23;20086;-92
2022/05/25 01:30:13;;;;;;;0.10;0.10;;;;;;;;;;6195351;23;20012;-92
2022/05/25 01:32:39;;;;;;;0.10;0.10;;;;;;;;;;6194907;23;20372;-92
2022/05/25 01:35:08;;;;;;;0.10;0.10;;;;;;;;;;6219040;23;20016;-91
2022/05/25 01:37:37;;;;;;;0.10;0.10;;;;;;;;;;6194516;23;20075;-92
2022/05/25 01:40:08;;;;;;;0.10;0.10;;;;;;;;;;6194355;23;20019;-92
2022/05/25 01:42:39;;;;;;;0.10;0.10;;;;;;;;;;6194027;23;20057;-92
2022/05/25 01:45:06;;;;;;;0.10;0.10;;;;;;;;;;6219095;23;20012;-92
2022/05/25 01:47:32;;;;;;;0.10;0.10;;;;;;;;;;6193894;23;20020;-92
2022/05/25 01:50:03;;;;;;;0.10;0.10;;;;;;;;;;6194445;23;20090;-92
2022/05/25 01:52:30;;;;;;;0.17;0.17;;;;;;;;;;6193848;22;20115;-92
2022/05/25 01:54:57;;;;;;;0.10;0.10;;;;;;;;;;6193835;23;20093;-92
2022/05/25 01:57:23;;;;;;;0.10;0.10;;;;;;;;;;6194076;23;20020;-92
2022/05/25 01:59:49;;;;;;;0.10;0.10;;;;;;;;;;6194138;23;20008;-91
2022/05/25 02:05:00;;;;;;;0.10;0.10;;;;;;;;;;6223452;23;20051;-91
2022/05/25 02:07:39;;;;;;;0.10;0.10;;;;;;;;;;6193848;23;20154;-92
2022/05/25 02:10:25;;;;;;;0.28;0.20;;;;;;;;;;6194077;23;20016;-91
2022/05/25 02:12:51;;;;;;;0.10;0.10;;;;;;;;;;6218375;23;20019;-92
2022/05/25 02:15:36;;;;;;;0.10;0.10;;;;;;;;;;6218782;23;20012;-92
2022/05/25 02:18:02;;;;;;;0.10;0.10;;;;;;;;;;6243962;23;20024;-92
2022/05/25 02:20:33;;;;;;;0.10;0.10;;;;;;;;;;6218712;23;20095;-93
2022/05/25 02:23:19;;;;;;;0.10;0.10;;;;;;;;;;6194024;23;20008;-92
2022/05/25 02:25:57;;;;;;;0.10;0.10;;;;;;;;;;6193666;23;20398;-91
2022/05/25 02:28:39;;;;;;;0.10;0.10;;;;;;;;;;6193928;23;20048;-92
2022/05/25 02:31:05;;;;;;;0.10;0.10;;;;;;;;;;6193901;23;20016;-92
2022/05/25 02:33:32;;;;;;;0.10;0.10;;;;;;;;;;6193744;23;20094;-93
2022/05/25 02:35:58;;;;;;;0.10;0.10;;;;;;;;;;6193963;23;20146;-92
2022/05/25 02:38:24;;;;;;;0.10;0.10;;;;;;;;;;6218376;23;20047;-92
2022/05/25 02:40:50;;;;;;;0.10;0.10;;;;;;;;;;6218675;23;20012;-93
2022/05/25 02:43:16;;;;;;;0.10;0.10;;;;;;;;;;6193934;23;20050;-93
2022/05/25 02:45:45;;;;;;;0.10;0.10;;;;;;;;;;6194342;23;20353;-93
2022/05/25 02:48:11;;;;;;;0.10;0.10;;;;;;;;;;6219428;23;20437;-93
2022/05/25 02:50:37;;;;;;;0.10;0.10;;;;;;;;;;6194506;23;20012;-93
2022/05/25 02:53:06;;;;;;;0.10;0.10;;;;;;;;;;6194041;23;20051;-94
2022/05/25 02:55:32;;;;;;;0.10;0.10;;;;;;;;;;6219579;23;20432;-93
2022/05/25 02:58:02;;;;;;;0.20;0.20;;;;;;;;;;6193576;23;20008;-93
2022/05/25 03:00:28;;;;;;;0.10;0.10;;;;;;;;;;6194064;23;20011;-92
2022/05/25 03:02:56;;;;;;;0.10;0.10;;;;;;;;;;6193985;23;20329;-93
2022/05/25 03:05:22;;;;;;;0.10;0.10;;;;;;;;;;6194047;23;20020;-93
2022/05/25 03:07:48;;;;;;;0.10;0.10;;;;;;;;;;6194126;23;20587;-93
2022/05/25 03:10:14;;;;;;;0.10;0.10;;;;;;;;;;6194316;23;20051;-94
2022/05/25 03:12:40;;;;;;;0.10;0.10;;;;;;;;;;6194673;23;20099;-93
2022/05/25 03:15:07;;;;;;;0.15;0.15;;;;;;;;;;6194754;23;20012;-93
2022/05/25 03:17:33;;;;;;;0.10;0.10;;;;;;;;;;6193984;23;20024;-94
2022/05/25 03:19:59;;;;;;;0.10;0.10;;;;;;;;;;6193993;23;20484;-94
2022/05/25 03:22:25;;;;;;;0.10;0.10;;;;;;;;;;6194014;22;20012;-93
2022/05/25 03:24:51;;;;;;;0.10;0.10;;;;;;;;;;6193904;23;20012;-93
2022/05/25 03:27:17;;;;;;;0.10;0.10;;;;;;;;;;6219410;23;20098;-92
2022/05/25 03:29:43;;;;;;;0.10;0.10;;;;;;;;;;6195917;23;20016;-93
2022/05/25 03:32:12;;;;;;;0.10;0.10;;;;;;;;;;6196004;22;20404;-93
2022/05/25 03:34:40;;;;;;;0.10;0.10;;;;;;;;;;6194868;23;20012;-92
2022/05/25 03:37:07;;;;;;;0.10;0.10;;;;;;;;;;6195655;23;20100;-92
2022/05/25 03:39:36;;;;;;;0.10;0.10;;;;;;;;;;6220611;23;20016;-93
2022/05/25 03:42:05;;;;;;;0.10;0.10;;;;;;;;;;6195620;23;20013;-93
2022/05/25 03:44:32;;;;;;;0.10;0.10;;;;;;;;;;6245856;22;20008;-92
2022/05/25 03:46:58;;;;;;;0.20;0.20;;;;;;;;;;6195707;23;20012;-93
2022/05/25 03:49:24;;;;;;;0.55;0.40;;;;;;;;;;6195669;23;20374;-94
2022/05/25 03:51:50;;;;;;;0.10;0.10;;;;;;;;;;6220970;23;20252;-93
2022/05/25 03:54:16;;;;;;;0.10;0.10;;;;;;;;;;6195740;23;20332;-93
2022/05/25 03:56:42;;;;;;;0.10;0.10;;;;;;;;;;6196225;23;20091;-93
2022/05/25 03:59:08;;;;;;;0.10;0.10;;;;;;;;;;6195532;23;20016;-92
2022/05/25 04:01:35;;;;;;;0.10;0.10;;;;;;;;;;6195916;23;20019;-93
2022/05/25 04:04:01;;;;;;;0.10;0.10;;;;;;;;;;6245487;22;20012;-93
2022/05/25 04:06:27;;;;;;;0.10;0.10;;;;;;;;;;6220418;23;20123;-92
2022/05/25 04:08:53;;;;;;;0.10;0.10;;;;;;;;;;6195402;23;20016;-92
2022/05/25 04:11:19;;;;;;;0.10;0.10;;;;;;;;;;6195648;23;20018;-93
2022/05/25 04:13:45;;;;;;;0.10;0.10;;;;;;;;;;6195131;23;20023;-92
2022/05/25 04:16:14;;;;;;;0.10;0.10;;;;;;;;;;6220646;23;20023;-94
2022/05/25 04:18:40;;;;;;;0.20;0.20;;;;;;;;;;6195489;23;20059;-93
2022/05/25 04:21:06;;;;;;;0.10;0.10;;;;;;;;;;6195295;23;20013;-91
2022/05/25 04:23:32;;;;;;;0.10;0.10;;;;;;;;;;6194750;23;20014;-91
2022/05/25 04:25:58;;;;;;;0.10;0.10;;;;;;;;;;6194725;23;20323;-90
2022/05/25 04:28:24;;;;;;;0.20;0.20;;;;;;;;;;6194931;23;20512;-92
2022/05/25 04:30:50;;;;;;;0.10;0.10;;;;;;;;;;6220022;23;20337;-91
2022/05/25 04:33:16;;;;;;;0.10;0.10;;;;;;;;;;6219895;23;20016;-91
2022/05/25 04:35:42;;;;;;;0.10;0.10;;;;;;;;;;6194574;23;20022;-91
2022/05/25 04:38:08;;;;;;;0.10;0.10;;;;;;;;;;6194848;23;20016;-93
2022/05/25 04:40:36;;;;;;;0.10;0.10;;;;;;;;;;6195605;23;20008;-92
2022/05/25 04:43:03;;;;;;;0.10;0.10;;;;;;;;;;6220284;23;20338;-92
2022/05/25 04:45:29;;;;;;;0.10;0.10;;;;;;;;;;6194955;23;20023;-92
2022/05/25 04:47:56;;;;;;;0.30;0.30;;;;;;;;;;6194906;23;20020;-93
2022/05/25 04:50:22;;;;;;;0.10;0.10;;;;;;;;;;6220242;23;20016;-93
2022/05/25 04:52:49;;;;;;;0.10;0.10;;;;;;;;;;6195667;23;20020;-92
2022/05/25 04:57:59;;;;;;;0.10;0.10;;;;;;;;;;6223795;23;20052;-90
2022/05/25 05:00:25;;;;;;;0.10;0.10;;;;;;;;;;6219337;23;20333;-89
2022/05/25 05:02:52;;;;;;;0.10;0.10;;;;;;;;;;6195330;23;20012;-92
2022/05/25 05:05:18;;;;;;;0.10;0.10;;;;;;;;;;6194280;23;20047;-91
2022/05/25 05:07:44;;;;;;;0.10;0.10;;;;;;;;;;6194740;23;20016;-92
2022/05/25 05:10:19;;;;;;;0.10;0.10;;;;;;;;;;6195484;23;20358;-94
2022/05/25 05:13:04;;;;;;;0.10;0.10;;;;;;;;;;6222814;23;20012;-96
2022/05/25 05:15:37;;;;;;;0.10;0.10;;;;;;;;;;6220499;23;20012;-93
2022/05/25 05:18:04;;;;;;;0.10;0.10;;;;;;;;;;6194684;23;20043;-93
2022/05/25 05:20:32;;;;;;;0.10;0.10;;;;;;;;;;6220188;23;20008;-94
2022/05/25 05:23:22;;;;;;;0.10;0.10;;;;;;;;;;6221244;23;20031;-96
2022/05/25 05:25:58;;;;;;;0.10;0.10;;;;;;;;;;6250653;23;20012;-95
2022/05/25 05:28:45;;;;;;;0.10;0.10;;;;;;;;;;6199590;23;20054;-96
2022/05/25 05:31:11;;;;;;;0.10;0.10;;;;;;;;;;6223911;22;20201;-96
2022/05/25 05:33:42;;;;;;;0.10;0.10;;;;;;;;;;6200095;22;20047;-96
2022/05/25 05:36:10;;;;;;;0.10;0.10;;;;;;;;;;6224948;22;20073;-95
2022/05/25 05:38:42;;;;;;;0.10;0.10;;;;;;;;;;6201292;22;20024;-96
2022/05/25 05:41:17;;;;;;;0.10;0.10;;;;;;;;;;6228207;22;20018;-96
2022/05/25 05:43:56;;;;;;;0.10;0.10;;;;;;;;;;6227198;22;20011;-94
2022/05/25 05:46:25;;;;;;;0.10;0.10;;;;;;;;;;6227437;22;20015;-95
2022/05/25 05:48:54;;;;;;;0.10;0.10;;;;;;;;;;6224243;23;20020;-95
2022/05/25 05:51:20;;;;;;;0.10;0.10;;;;;;;;;;6169909;23;20075;-93
2022/05/25 05:53:47;;;;;;;0.10;0.10;;;;;;;;;;6163963;23;20212;-92
2022/05/25 05:56:13;;;;;;;0.10;0.10;;;;;;;;;;6189152;23;20012;-93
2022/05/25 05:58:39;;;;;;;0.10;0.10;;;;;;;;;;6163851;23;20012;-93
2022/05/25 06:01:05;;;;;;;0.10;0.10;;;;;;;;;;6163990;23;20434;-92
2022/05/25 06:03:31;;;;;;;0.10;0.10;;;;;;;;;;6163439;23;20013;-93
2022/05/25 06:06:00;;;;;;;0.22;0.22;;;;;;;;;;6163508;23;20022;-93
2022/05/25 06:08:27;;;;;;;0.10;0.10;;;;;;;;;;6188836;23;20320;-93
2022/05/25 06:10:53;;;;;;;0.10;0.10;;;;;;;;;;6163735;23;20049;-93
2022/05/25 06:13:19;;;;;;;0.10;0.10;;;;;;;;;;6163677;23;20071;-94
2022/05/25 06:21:20;;;;;;;0.20;0.20;;;;;;;;;;6188801;23;20012;-93
2022/05/25 06:23:47;;;;;;;0.20;0.20;;;;;;;;;;6164379;23;20096;-94
2022/05/25 06:26:15;;;;;;;0.10;0.10;;;;;;;;;;6166550;23;20020;-93
2022/05/25 06:28:42;;;;;;;0.10;0.10;;;;;;;;;;6170975;23;20028;-93
2022/05/25 06:31:08;;;;;;;0.10;0.10;;;;;;;;;;6186478;23;20068;-93
2022/05/25 06:33:35;;;;;;;0.10;0.10;;;;;;;;;;6190930;23;20009;-93
2022/05/25 06:36:15;;;;;;;0.10;0.10;;;;;;;;;;6163814;23;20081;-93
2022/05/25 06:38:41;;;;;;;0.20;0.20;;;;;;;;;;6163370;23;20017;-94
2022/05/25 06:41:07;;;;;;;0.10;0.10;;;;;;;;;;6163277;23;20449;-94
2022/05/25 06:43:35;;;;;;;0.10;0.10;;;;;;;;;;6163218;23;20500;-94
2022/05/25 06:46:01;;;;;;;0.10;0.10;;;;;;;;;;6163222;23;20016;-94
2022/05/25 06:48:30;;;;;;;0.10;0.10;;;;;;;;;;6163215;23;20043;-94
2022/05/25 06:50:57;;;;;;;0.10;0.10;;;;;;;;;;6163471;23;20095;-94
2022/05/25 06:53:24;;;;;;;0.10;0.10;;;;;;;;;;6163203;23;20404;-93
2022/05/25 06:55:52;;;;;;;0.20;0.20;;;;;;;;;;6163218;23;20069;-93
2022/05/25 06:58:19;;;;;;;0.20;0.20;;;;;;;;;;6162971;23;20041;-94
2022/05/25 07:00:45;;;;;;;0.20;0.20;;;;;;;;;;6163150;23;20016;-94
2022/05/25 07:03:13;;;;;;;0.10;0.10;;;;;;;;;;6162600;23;20009;-93
2022/05/25 07:05:40;;;;;;;0.10;0.10;;;;;;;;;;6162640;23;20013;-94
2022/05/25 07:08:06;;;;;;;1.00;1.00;;;;;;;;;;6163163;23;20013;-94
2022/05/25 07:10:33;;;;;;;0.20;0.20;;;;;;;;;;6163424;23;20009;-92
2022/05/25 07:13:00;;;;;;;0.20;0.20;;;;;;;;;;6163543;23;20084;-93
2022/05/25 07:15:28;;;;;;;0.20;0.20;;;;;;;;;;6163226;23;20062;-93
2022/05/25 07:17:58;;;;;;;0.20;0.20;;;;;;;;;;6189396;23;20017;-93
2022/05/25 07:20:24;;;;;;;0.10;0.10;;;;;;;;;;6165877;23;20019;-93
2022/05/25 07:22:51;;;;;;;0.20;0.20;;;;;;;;;;6166665;23;20461;-93
2022/05/25 07:25:23;;;;;;;0.10;0.10;;;;;;;;;;6192716;23;20013;-93
2022/05/25 07:27:50;;;;;;;0.20;0.20;;;;;;;;;;6167095;23;20449;-94
2022/05/25 07:30:17;;;;;;;0.10;0.10;;;;;;;;;;6188601;23;20038;-92
2022/05/25 07:32:43;;;;;;;0.20;0.20;;;;;;;;;;6186153;23;20020;-93
2022/05/25 07:35:10;;;;;;;0.20;0.20;;;;;;;;;;6163467;23;20028;-93
2022/05/25 07:37:41;;;;;;;0.17;0.17;;;;;;;;;;6164004;23;20032;-93
2022/05/25 07:40:08;;;;;;;0.13;0.13;;;;;;;;;;6163215;23;20013;-93
2022/05/25 07:42:35;;;;;;;0.10;0.10;;;;;;;;;;6162821;23;20349;-93
2022/05/25 07:45:06;;;;;;;0.10;0.10;;;;;;;;;;6187773;23;20338;-93
2022/05/25 07:47:35;;;;;;;0.20;0.20;;;;;;;;;;6163019;23;20106;-93
2022/05/25 07:50:01;;;;;;;0.20;0.20;;;;;;;;;;6162720;23;20021;-93
2022/05/25 07:52:35;;;;;;;0.20;0.20;;;;;;;;;;6187483;23;20358;-93
2022/05/25 07:55:02;;;;;;;0.20;0.20;;;;;;;;;;6188159;23;20123;-93
2022/05/25 07:57:29;;;;;;;0.20;0.20;;;;;;;;;;6162884;23;20027;-93
2022/05/25 07:59:55;;;;;;;0.30;0.30;;;;;;;;;;6163291;23;20063;-93
2022/05/25 08:07:56;;;;;;;0.20;0.20;;;;;;;;;;6187545;23;20023;-93
2022/05/25 08:10:22;;;;;;;0.20;0.20;;;;;;;;;;6162817;23;20023;-93
2022/05/25 08:12:49;;;;;;;0.20;0.20;;;;;;;;;;6162584;23;20017;-93
2022/05/25 08:15:16;;;;;;;0.13;0.13;;;;;;;;;;6164600;23;20017;-93
2022/05/25 08:17:43;;;;;;;0.10;0.10;;;;;;;;;;6189833;23;20143;-92
2022/05/25 08:20:10;;;;;;;0.20;0.20;;;;;;;;;;6164445;23;20019;-93
2022/05/25 08:22:37;;;;;;;0.20;0.20;;;;;;;;;;6164404;23;20020;-92
2022/05/25 08:25:04;;;;;;;0.10;0.10;;;;;;;;;;6189477;23;20088;-93
2022/05/25 08:27:38;;;;;;;0.20;0.20;;;;;;;;;;6214952;23;20515;-92
2022/05/25 08:30:05;;;;;;;0.20;0.20;;;;;;;;;;6164775;23;20027;-92
2022/05/25 08:32:32;;;;;;;0.20;0.20;;;;;;;;;;6164638;23;20048;-93
2022/05/25 08:34:58;;;;;;;0.10;0.10;;;;;;;;;;6164355;23;20020;-93
2022/05/25 08:37:24;;;;;;;0.17;0.17;;;;;;;;;;6164702;23;20009;-92
2022/05/25 08:39:51;;;;;;;0.20;0.20;;;;;;;;;;6164384;23;20005;-93
2022/05/25 08:42:18;;;;;;;0.20;0.20;;;;;;;;;;6164303;23;20016;-93
2022/05/25 08:44:44;;;;;;;0.20;0.20;;;;;;;;;;6164398;23;20013;-92
2022/05/25 08:47:12;;;;;;;0.10;0.10;;;;;;;;;;6164456;23;20013;-92
2022/05/25 08:49:43;;;;;;;0.20;0.20;;;;;;;;;;6164199;23;20468;-94
2022/05/25 08:52:27;;;;;;;0.20;0.20;;;;;;;;;;6164254;23;20382;-93
2022/05/25 08:54:56;;;;;;;0.10;0.10;;;;;;;;;;6189056;23;20118;-93
2022/05/25 08:57:24;;;;;;;0.20;0.20;;;;;;;;;;6164214;23;20422;-92
2022/05/25 09:00:26;;;;;;;0.20;0.20;;;;;;;;;;6164113;23;20059;-93
2022/05/25 09:03:01;;;;;;;0.10;0.10;;;;;;;;;;6099351;23;20331;-93
2022/05/25 09:05:29;;;;;;;0.20;0.20;;;;;;;;;;6152088;23;20597;-93
2022/05/25 09:08:06;;;;;;;0.13;0.13;;;;;;;;;;6164034;23;20012;-93
2022/05/25 09:10:33;;;;;;;0.10;0.10;;;;;;;;;;6164602;23;20091;-93
2022/05/25 09:13:14;;;;;;;0.10;0.10;;;;;;;;;;6163764;23;20013;-92
2022/05/25 09:18:33;;;;;;;0.20;0.20;;;;;;;;;;6188558;23;20020;-92
2022/05/25 09:20:59;;;;;;;0.10;0.10;;;;;;;;;;6164508;23;20040;-93
2022/05/25 09:23:25;;;;;;;0.10;0.10;;;;;;;;;;6163980;23;20012;-92
2022/05/25 09:25:51;;;;;;;0.10;0.10;;;;;;;;;;6163281;23;20019;-93
2022/05/25 09:28:21;;;;;;;0.20;0.20;;;;;;;;;;6164386;23;20337;-92
2022/05/25 09:30:48;;;;;;;0.10;0.10;;;;;;;;;;6188657;23;20023;-92
2022/05/25 09:33:15;;;;;;;0.17;0.17;;;;;;;;;;6164223;23;20075;-92
2022/05/25 09:35:43;;;;;;;0.10;0.10;;;;;;;;;;6163914;23;20013;-92
2022/05/25 09:38:16;;;;;;;0.17;0.17;;;;;;;;;;6164113;23;20089;-93
2022/05/25 09:41:06;;;;;;;0.20;0.20;;;;;;;;;;6164018;23;20013;-93
2022/05/25 09:43:32;;;;;;;0.10;0.10;;;;;;;;;;6152476;23;20059;-92
2022/05/25 09:45:59;;;;;;;0.10;0.10;;;;;;;;;;6163973;23;20088;-93
2022/05/25 09:48:26;;;;;;;0.20;0.20;;;;;;;;;;6163778;23;20020;-92
2022/05/25 09:51:12;;;;;;;0.10;0.10;;;;;;;;;;6189059;23;20024;-93
2022/05/25 09:53:41;;;;;;;0.10;0.10;;;;;;;;;;6163883;23;20012;-92
2022/05/25 09:56:13;;;;;;;0.10;0.10;;;;;;;;;;6163937;23;20044;-93
2022/05/25 09:58:41;;;;;;;0.20;0.20;;;;;;;;;;6163972;23;20044;-92
2022/05/25 10:01:08;;;;;;;0.10;0.10;;;;;;;;;;6164141;23;20073;-92
2022/05/25 10:03:38;;;;;;;0.10;0.10;;;;;;;;;;6163478;23;20012;-93
2022/05/25 10:06:22;;;;;;;0.10;0.10;;;;;;;;;;6163631;23;20087;-92
2022/05/25 10:08:52;;;;;;;0.10;0.10;;;;;;;;;;6188300;23;20012;-92
2022/05/25 10:11:37;;;;;;;0.10;0.10;;;;;;;;;;6163676;23;20017;-92
2022/05/25 10:14:24;;;;;;;0.10;0.10;;;;;;;;;;6188367;23;20020;-93
2022/05/25 10:16:52;;;;;;;0.10;0.10;;;;;;;;;;6163886;23;20016;-92
2022/05/25 10:19:18;;;;;;;0.30;0.30;;;;;;;;;;6163477;23;20076;-91
2022/05/25 10:21:49;;;;;;;0.10;0.10;;;;;;;;;;6163563;23;20013;-92
2022/05/25 10:24:16;;;;;;;0.20;0.20;;;;;;;;;;6163929;23;20045;-92
2022/05/25 10:26:46;;;;;;;0.20;0.20;;;;;;;;;;6163565;23;20009;-91
2022/05/25 10:29:13;;;;;;;0.10;0.10;;;;;;;;;;6163576;23;20311;-92
2022/05/25 10:37:25;;;;;;;0.20;0.20;;;;;;;;;;6188080;23;20017;-92
2022/05/25 10:39:55;;;;;;;0.20;0.20;;;;;;;;;;6163243;23;20445;-92
2022/05/25 10:42:24;;;;;;;0.10;0.10;;;;;;;;;;6163366;23;20020;-92
2022/05/25 10:44:53;;;;;;;0.10;0.10;;;;;;;;;;6163332;23;20446;-92
2022/05/25 10:47:26;;;;;;;0.10;0.10;;;;;;;;;;6163283;23;20009;-92
2022/05/25 10:49:52;;;;;;;0.10;0.10;;;;;;;;;;6188198;23;20017;-92
2022/05/25 10:52:21;;;;;;;0.10;0.10;;;;;;;;;;6163012;23;20013;-92
2022/05/25 10:54:49;;;;;;;0.10;0.10;;;;;;;;;;6188165;23;20389;-92
2022/05/25 10:57:22;;;;;;;0.20;0.20;;;;;;;;;;6163420;23;20013;-93
2022/05/25 10:59:50;;;;;;;0.10;0.10;;;;;;;;;;6163255;23;20019;-93
2022/05/25 11:02:21;;;;;;;0.22;0.22;;;;;;;;;;6162924;23;20009;-92
2022/05/25 11:05:06;;;;;;;0.20;0.20;;;;;;;;;;6188029;23;20040;-92
2022/05/25 11:07:33;;;;;;;0.22;0.22;;;;;;;;;;6163165;23;20350;-92
2022/05/25 11:10:18;;;;;;;0.10;0.10;;;;;;;;;;6189737;23;20446;-92
2022/05/25 11:12:50;;;;;;;0.15;0.15;;;;;;;;;;6165714;23;20434;-93
2022/05/25 11:15:34;;;;;;;0.13;0.13;;;;;;;;;;6166166;23;20008;-92
2022/05/25 11:18:13;;;;;;;0.10;0.10;;;;;;;;;;6183533;23;20027;-92
2022/05/25 11:20:58;;;;;;;0.10;0.10;;;;;;;;;;6181259;23;20044;-92
2022/05/25 11:23:24;;;;;;;0.10;0.10;;;;;;;;;;6162934;23;20016;-92
2022/05/25 11:25:58;;;;;;;0.10;0.10;;;;;;;;;;6163028;23;20066;-91
2022/05/25 11:28:33;;;;;;;0.20;0.20;;;;;;;;;;6162948;23;20013;-92
2022/05/25 11:31:06;;;;;;;0.20;0.20;;;;;;;;;;6163359;23;20008;-92
2022/05/25 11:33:51;;;;;;;0.20;0.20;;;;;;;;;;6187647;23;20015;-92
2022/05/25 11:36:37;;;;;;;0.10;0.10;;;;;;;;;;6162852;23;20027;-92
2022/05/25 11:39:03;;;;;;;0.20;0.20;;;;;;;;;;6162984;23;20044;-92
2022/05/25 11:41:47;;;;;;;0.15;0.15;;;;;;;;;;6161573;23;20019;-92
2022/05/25 11:44:35;;;;;;;0.20;0.20;;;;;;;;;;6163220;23;20009;-92
2022/05/25 11:47:20;;;;;;;0.10;0.10;;;;;;;;;;6162965;23;20019;-93
2022/05/25 11:50:03;;;;;;;0.20;0.20;;;;;;;;;;6164467;23;20016;-92
2022/05/25 11:52:42;;;;;;;0.10;0.10;;;;;;;;;;6189710;23;20414;-92
2022/05/25 11:55:27;;;;;;;0.10;0.10;;;;;;;;;;6165326;23;20040;-93
2022/05/25 11:57:56;;;;;;;0.10;0.10;;;;;;;;;;6165136;23;20012;-92
2022/05/25 12:00:40;;;;;;;0.10;0.10;;;;;;;;;;6164972;23;20374;-92
2022/05/25 12:03:09;;;;;;;0.20;0.20;;;;;;;;;;6164728;23;20013;-93
2022/05/25 12:05:41;;;;;;;0.20;0.20;;;;;;;;;;6165311;23;20095;-92
2022/05/25 12:08:19;;;;;;;0.20;0.20;;;;;;;;;;6189729;23;20013;-92
2022/05/25 12:10:45;;;;;;;0.10;0.10;;;;;;;;;;6189671;23;20337;-92
2022/05/25 12:13:12;;;;;;;0.10;0.10;;;;;;;;;;6164651;23;20016;-92
2022/05/25 12:15:49;;;;;;;0.10;0.10;;;;;;;;;;6164474;23;20066;-91
2022/05/25 12:18:26;;;;;;;0.10;0.10;;;;;;;;;;6165025;23;20023;-91
2022/05/25 12:21:13;;;;;;;0.10;0.10;;;;;;;;;;6164606;23;20064;-91
2022/05/25 12:23:43;;;;;;;0.10;0.10;;;;;;;;;;6164438;23;20347;-92
2022/05/25 12:26:29;;;;;;;0.17;0.17;;;;;;;;;;6164492;23;20048;-91
2022/05/25 12:29:21;;;;;;;0.10;0.10;;;;;;;;;;6164654;23;20435;-92
2022/05/25 12:31:49;;;;;;;0.10;0.10;;;;;;;;;;6131348;23;20016;-92
2022/05/25 12:34:15;;;;;;;0.20;0.20;;;;;;;;;;6164762;23;20560;-91
2022/05/25 12:36:42;;;;;;;0.28;0.28;;;;;;;;;;6164524;23;20323;-91
2022/05/25 12:39:11;;;;;;;0.15;0.15;;;;;;;;;;6164282;23;20028;-92
2022/05/25 12:41:40;;;;;;;0.20;0.20;;;;;;;;;;6214968;23;20195;-92
2022/05/25 12:49:39;;;;;;;0.10;0.10;;;;;;;;;;6189149;23;20020;-92
2022/05/25 12:52:24;;;;;;;0.10;0.10;;;;;;;;;;6189268;23;20362;-92
2022/05/25 12:55:13;;;;;;;0.20;0.20;;;;;;;;;;6189332;23;20012;-93
2022/05/25 12:57:50;;;;;;;0.20;0.20;;;;;;;;;;6153008;23;20063;-92
2022/05/25 13:00:20;;;;;;;0.10;0.10;;;;;;;;;;6188693;23;20094;-92
2022/05/25 13:02:47;;;;;;;0.10;0.10;;;;;;;;;;6164207;23;20010;-92
2022/05/25 13:05:33;;;;;;;0.20;0.20;;;;;;;;;;6164386;23;20046;-92
2022/05/25 13:07:58;;;;;;;0.20;0.20;;;;;;;;;;6164001;23;20024;-93
2022/05/25 13:10:28;;;;;;;0.10;0.10;;;;;;;;;;6164035;23;20013;-92
2022/05/25 13:12:58;;;;;;;0.20;0.20;;;;;;;;;;6164284;23;20086;-93
2022/05/25 13:15:38;;;;;;;0.15;0.15;;;;;;;;;;6164120;23;20017;-92
2022/05/25 13:18:04;;;;;;;0.10;0.10;;;;;;;;;;6163864;23;20013;-93
2022/05/25 13:20:46;;;;;;;0.20;0.20;;;;;;;;;;6188909;23;20008;-93
2022/05/25 13:23:12;;;;;;;0.13;0.13;;;;;;;;;;6188647;23;20488;-93
2022/05/25 13:26:03;;;;;;;0.20;0.20;;;;;;;;;;6189032;23;20016;-92
2022/05/25 13:28:38;;;;;;;0.10;0.10;;;;;;;;;;6152678;23;20013;-92
2022/05/25 13:31:06;;;;;;;0.10;0.10;;;;;;;;;;6164046;23;20387;-92
2022/05/25 13:33:43;;;;;;;0.10;0.10;;;;;;;;;;6164173;23;20013;-92
2022/05/25 13:36:22;;;;;;;0.10;0.10;;;;;;;;;;6164093;23;20016;-92
2022/05/25 13:38:55;;;;;;;0.15;0.15;;;;;;;;;;6163918;23;20020;-92
2022/05/25 13:41:26;;;;;;;0.10;0.10;;;;;;;;;;6164071;23;20442;-93
2022/05/25 13:43:58;;;;;;;0.10;0.10;;;;;;;;;;6164076;23;20395;-92
2022/05/25 13:46:34;;;;;;;0.10;0.10;;;;;;;;;;6164129;23;20430;-91
2022/05/25 13:49:00;;;;;;;0.20;0.20;;;;;;;;;;6183429;23;20052;-93
2022/05/25 13:51:27;;;;;;;0.10;0.10;;;;;;;;;;6158898;23;20028;-93
2022/05/25 13:53:54;;;;;;;0.47;0.47;;;;;;;;;;6159085;23;20017;-93
2022/05/25 13:56:21;;;;;;;0.10;0.10;;;;;;;;;;6159392;23;20017;-93
2022/05/25 13:58:48;;;;;;;0.10;0.10;;;;;;;;;;6158652;23;20095;-93
2022/05/25 14:01:15;;;;;;;0.10;0.10;;;;;;;;;;6159308;23;20576;-93
2022/05/25 14:03:46;;;;;;;0.28;0.28;;;;;;;;;;6158713;23;20067;-93
2022/05/25 14:06:13;;;;;;;0.10;0.10;;;;;;;;;;6158627;23;20017;-93
2022/05/25 14:11:50;;;;;;;0.10;0.10;;;;;;;;;;6183499;23;20031;-93
2022/05/25 14:14:21;;;;;;;0.13;0.13;;;;;;;;;;6158693;23;20013;-93
2022/05/25 14:16:53;;;;;;;0.10;0.10;;;;;;;;;;6159471;23;20503;-93
2022/05/25 14:19:23;;;;;;;0.10;0.10;;;;;;;;;;6159128;23;20017;-93
2022/05/25 14:21:54;;;;;;;0.10;0.10;;;;;;;;;;6161740;23;20013;-96
2022/05/25 14:24:28;;;;;;;0.20;0.20;;;;;;;;;;6161538;23;20389;-92
2022/05/25 14:26:55;;;;;;;0.10;0.10;;;;;;;;;;6159984;23;20009;-94
2022/05/25 14:29:28;;;;;;;0.10;0.10;;;;;;;;;;6162193;23;20023;-94
2022/05/25 14:31:58;;;;;;;0.10;0.10;;;;;;;;;;6160949;23;20013;-92
2022/05/25 14:34:26;;;;;;;0.10;0.10;;;;;;;;;;6158397;23;20013;-89
2022/05/25 14:37:09;;;;;;;0.10;0.10;;;;;;;;;;6159478;23;20406;-96
2022/05/25 14:45:20;;;;;;;0.10;0.10;;;;;;;;;;6224632;22;20032;-96
2022/05/25 14:47:59;;;;;;;0.10;0.10;;;;;;;;;;6204211;23;20064;-96
2022/05/25 14:50:58;;;;;;;0.10;0.10;;;;;;;;;;6146216;23;20077;-95
2022/05/25 14:56:58;;;;;;;0.10;0.10;;;;;;;;;;6191188;23;20017;-93
2022/05/25 14:59:36;;;;;;;0.10;0.10;;;;;;;;;;6139142;23;20021;-93
2022/05/25 15:02:03;;;;;;;0.10;0.10;;;;;;;;;;6137339;23;20012;-95
2022/05/25 15:04:37;;;;;;;0.10;0.10;;;;;;;;;;6161759;23;20170;-94
2022/05/25 15:07:07;;;;;;;0.10;0.10;;;;;;;;;;6187153;23;20591;-94
2022/05/25 15:09:36;;;;;;;0.10;0.10;;;;;;;;;;6138652;23;20035;-93
2022/05/25 15:12:05;;;;;;;0.10;0.10;;;;;;;;;;6138225;23;20016;-94
2022/05/25 15:20:11;;;;;;;0.10;0.10;;;;;;;;;;6166028;23;20088;-91
2022/05/25 15:22:41;;;;;;;0.10;0.10;;;;;;;;;;6187323;23;20009;-94
2022/05/25 15:25:11;;;;;;;0.20;0.20;;;;;;;;;;6187644;23;20016;-89
2022/05/25 15:27:38;;;;;;;0.10;0.10;;;;;;;;;;6187826;23;20012;-92
2022/05/25 15:30:20;;;;;;;0.10;0.10;;;;;;;;;;6188339;23;20020;-91
2022/05/25 15:32:46;;;;;;;0.20;0.20;;;;;;;;;;6187768;23;20023;-92
2022/05/25 15:35:11;;;;;;;0.10;0.10;;;;;;;;;;6187575;23;20013;-89
2022/05/25 15:37:37;;;;;;;0.17;0.17;;;;;;;;;;6212778;23;20019;-91
2022/05/25 15:40:04;;;;;;;0.20;0.20;;;;;;;;;;6188167;23;20067;-93
2022/05/25 15:42:30;;;;;;;0.10;0.10;;;;;;;;;;6188086;23;20008;-92
2022/05/25 15:44:58;;;;;;;0.10;0.10;;;;;;;;;;6188332;23;20285;-94
2022/05/25 15:47:24;;;;;;;0.10;0.10;;;;;;;;;;6163864;23;20481;-92
2022/05/25 15:49:50;;;;;;;0.10;0.10;;;;;;;;;;6188429;23;20016;-94
2022/05/25 15:57:38;;;;;;;0.10;0.10;;;;;;;;;;6254847;22;20061;-95
2022/05/25 16:00:04;;;;;;;0.10;0.10;;;;;;;;;;6227073;22;20162;-95